Terminal Aerodrome Forecast
Issued by NWS Bismarck, ND

Home | Current Version | Previous Version | Graphics & Text | Print | Product List | Glossary On
Versions: 1 2 3 4 5 6 7 8 9 10 11 12 13 14 15 16 17 18 19 20 21 22 23 24 25
488
FTUS43 KBIS 301004 AAE
TAFBIS
TAF AMD
KBIS 301004Z 3010/3106 VRB05KT 2SM TSRA BR BKN028CB BKN035
     FM301030 15008KT P6SM VCSH SCT030 BKN100
     FM301200 15008KT P6SM SCT100
      TEMPO 3012/3015 3SM BR
     FM301700 16008KT P6SM FEW250=

USA.gov is the U.S. government's official web portal to all federal, state and local government web resources and services.